createdAt,value
2023-03-01T00:00:33.838Z,11.83
2023-03-01T00:01:38.544Z,12.35
2023-03-01T00:02:42.389Z,13.67
2023-03-01T00:03:47.020Z,11.38
2023-03-01T00:04:50.807Z,10.77
2023-03-01T00:05:54.512Z,12.10
2023-03-01T00:06:58.491Z,13.55
2023-03-01T00:08:03.096Z,13.10
2023-03-01T00:09:09.806Z,12.27
2023-03-01T00:10:14.228Z,13.18
2023-03-01T00:11:26.044Z,10.07
2023-03-01T00:12:30.273Z,10.73
2023-03-01T00:13:36.386Z,11.50
2023-03-01T00:14:42.894Z,11.53
2023-03-01T00:15:46.817Z,11.70
2023-03-01T00:16:50.553Z,12.10
2023-03-01T00:17:54.459Z,12.25
2023-03-01T00:19:01.470Z,11.00
2023-03-01T00:20:12.897Z,10.70
2023-03-01T00:21:16.953Z,10.65
2023-03-01T00:22:20.858Z,11.07
2023-03-01T00:23:25.970Z,11.25
2023-03-01T00:24:30.357Z,10.43
2023-03-01T00:25:34.447Z,10.40
2023-03-01T00:26:38.712Z,11.32
2023-03-01T00:27:42.634Z,10.30
2023-03-01T00:28:47.694Z,10.48
2023-03-01T00:29:51.447Z,10.32
2023-03-01T00:31:03.447Z,10.70
2023-03-01T00:32:12.931Z,11.47
2023-03-01T00:33:16.898Z,12.07
2023-03-01T00:34:20.995Z,12.63
2023-03-01T00:35:25.190Z,10.50
2023-03-01T00:36:35.890Z,12.60
2023-03-01T00:37:39.821Z,10.90
2023-03-01T00:38:46.949Z,11.80
2023-03-01T00:39:51.529Z,12.30
2023-03-01T00:40:56.264Z,9.13
2023-03-01T00:42:00.621Z,12.45
2023-03-01T00:43:05.297Z,11.02
2023-03-01T00:44:14.694Z,11.63
2023-03-01T00:45:19.132Z,13.45
2023-03-01T00:46:28.490Z,9.10
2023-03-01T00:47:32.549Z,12.57
2023-03-01T00:48:38.040Z,11.17
2023-03-01T00:49:41.738Z,10.50
2023-03-01T00:50:45.782Z,12.07
2023-03-01T00:51:49.547Z,10.67
2023-03-01T00:52:57.554Z,11.18
2023-03-01T00:54:08.765Z,8.85
2023-03-01T00:55:13.819Z,9.40
2023-03-01T00:56:17.957Z,10.07
2023-03-01T00:57:21.650Z,9.97
2023-03-01T00:58:26.222Z,8.93
2023-03-01T00:59:30.370Z,9.50
2023-03-01T01:00:34.804Z,9.10
2023-03-01T01:01:39.020Z,9.15
2023-03-01T01:02:43.433Z,9.20
2023-03-01T01:03:55.512Z,9.07
2023-03-01T01:04:59.546Z,8.17
2023-03-01T01:06:33.526Z,9.20
2023-03-01T01:07:38.009Z,6.93
2023-03-01T01:08:41.907Z,7.72
2023-03-01T01:09:47.242Z,9.10
2023-03-01T01:10:51.070Z,7.90
2023-03-01T01:11:54.807Z,8.47
2023-03-01T01:12:59.313Z,8.88
2023-03-01T01:14:03.855Z,8.10
2023-03-01T01:15:17.697Z,9.43
2023-03-01T01:16:24.339Z,8.83
2023-03-01T01:17:28.104Z,9.37
2023-03-01T01:18:32.082Z,8.13
2023-03-01T01:19:35.840Z,11.13
2023-03-01T01:20:39.700Z,11.27
2023-03-01T01:21:44.309Z,10.17
2023-03-01T01:22:48.148Z,8.38
2023-03-01T01:23:59.990Z,10.38
2023-03-01T01:25:15.554Z,8.80
2023-03-01T01:26:31.070Z,10.57
2023-03-01T01:27:35.252Z,8.67
2023-03-01T01:28:39.291Z,7.93
2023-03-01T01:29:45.629Z,8.57
2023-03-01T01:30:49.362Z,9.20
2023-03-01T01:31:53.568Z,9.47
2023-03-01T01:32:57.821Z,9.43
2023-03-01T01:34:04.556Z,8.17
2023-03-01T01:35:14.089Z,8.13
2023-03-01T01:36:20.928Z,9.38
2023-03-01T01:37:32.297Z,8.77
2023-03-01T01:38:38.889Z,7.23
2023-03-01T01:39:42.981Z,9.93
2023-03-01T01:40:52.330Z,8.37
2023-03-01T01:41:56.273Z,9.07
2023-03-01T01:43:00.328Z,9.02
2023-03-01T01:44:31.552Z,10.18
2023-03-01T01:45:37.072Z,10.00
2023-03-01T01:46:52.669Z,9.25
2023-03-01T01:48:09.066Z,10.30
2023-03-01T01:49:54.866Z,9.45
2023-03-01T01:51:02.589Z,9.10
2023-03-01T01:52:22.688Z,11.20
2023-03-01T01:53:28.361Z,9.70
2023-03-01T01:55:09.475Z,9.50
2023-03-01T01:56:19.369Z,9.73
2023-03-01T01:57:35.079Z,10.73
2023-03-01T01:58:40.212Z,10.75
2023-03-01T01:59:52.189Z,10.02
2023-03-01T02:00:56.650Z,10.97
2023-03-01T02:02:05.471Z,8.63
2023-03-01T02:03:34.563Z,9.07
2023-03-01T02:04:38.974Z,9.45
2023-03-01T02:05:57.608Z,10.33
2023-03-01T02:07:16.619Z,12.23
2023-03-01T02:08:24.053Z,9.80
2023-03-01T02:09:29.334Z,11.03
2023-03-01T02:10:36.872Z,11.27
2023-03-01T02:11:45.581Z,10.97
2023-03-01T02:12:49.620Z,10.13
2023-03-01T02:13:55.923Z,9.73
2023-03-01T02:14:59.783Z,9.48
2023-03-01T02:16:12.810Z,11.13
2023-03-01T02:17:19.936Z,10.93
2023-03-01T02:18:26.246Z,8.63
2023-03-01T02:20:14.030Z,9.90
2023-03-01T02:21:54.290Z,10.00
2023-03-01T02:22:58.768Z,9.63
2023-03-01T02:24:36.221Z,10.67
2023-03-01T02:26:25.691Z,10.13
2023-03-01T02:27:46.953Z,8.20
2023-03-01T02:28:51.855Z,9.32
2023-03-01T02:29:56.892Z,9.82
2023-03-01T02:31:24.364Z,9.38
2023-03-01T02:32:28.161Z,9.80
2023-03-01T02:33:37.238Z,9.93
2023-03-01T02:34:41.380Z,9.40
2023-03-01T02:35:45.423Z,10.33
2023-03-01T02:37:13.776Z,9.87
2023-03-01T02:38:18.182Z,9.20
2023-03-01T02:39:32.649Z,9.10
2023-03-01T02:40:41.709Z,10.00
2023-03-01T02:41:53.157Z,10.33
2023-03-01T02:43:00.466Z,9.33
2023-03-01T02:44:13.411Z,9.07
2023-03-01T02:45:18.392Z,9.33
2023-03-01T02:46:27.176Z,10.30
2023-03-01T02:47:30.902Z,9.87
2023-03-01T02:48:51.766Z,8.73
2023-03-01T02:50:02.719Z,10.83
2023-03-01T02:51:32.279Z,8.43
2023-03-01T02:52:49.172Z,10.00
2023-03-01T02:54:14.619Z,8.37
2023-03-01T02:55:19.390Z,8.80
2023-03-01T02:56:23.570Z,9.03
2023-03-01T02:57:31.294Z,9.27
2023-03-01T02:58:46.221Z,9.47
2023-03-01T02:59:52.492Z,9.10
2023-03-01T03:00:57.810Z,9.87
2023-03-01T03:02:02.907Z,8.23
2023-03-01T03:03:16.477Z,9.07
2023-03-01T03:04:22.133Z,8.27
2023-03-01T03:05:31.312Z,8.90
2023-03-01T03:06:35.898Z,8.97
2023-03-01T03:07:44.642Z,9.70
2023-03-01T03:08:48.496Z,8.90
2023-03-01T03:09:52.171Z,7.23
2023-03-01T03:10:56.936Z,9.60
2023-03-01T03:12:01.056Z,10.23
2023-03-01T03:13:10.242Z,7.17
2023-03-01T03:14:17.218Z,7.80
2023-03-01T03:15:23.265Z,9.20
2023-03-01T03:16:27.475Z,8.90
2023-03-01T03:17:31.362Z,9.17
2023-03-01T03:18:35.325Z,9.13
2023-03-01T03:19:39.200Z,9.23
2023-03-01T03:20:47.188Z,9.13
2023-03-01T03:21:51.049Z,9.37
2023-03-01T03:22:59.391Z,9.70
2023-03-01T03:24:04.938Z,8.77
2023-03-01T03:25:13.582Z,10.02
2023-03-01T03:26:17.543Z,8.90
2023-03-01T03:27:21.371Z,8.07
2023-03-01T03:28:25.156Z,9.10
2023-03-01T03:29:28.905Z,8.83
2023-03-01T03:30:33.093Z,9.67
2023-03-01T03:31:37.127Z,8.27
2023-03-01T03:32:42.168Z,9.32
2023-03-01T03:33:46.113Z,8.77
2023-03-01T03:34:50.406Z,9.33
2023-03-01T03:35:54.299Z,9.70
2023-03-01T03:37:00.505Z,9.20
2023-03-01T03:38:16.600Z,9.03
2023-03-01T03:39:21.790Z,10.53
2023-03-01T03:40:28.143Z,9.30
2023-03-01T03:41:31.984Z,8.68
2023-03-01T03:42:35.775Z,8.52
2023-03-01T03:43:43.719Z,9.90
2023-03-01T03:44:47.496Z,9.87
2023-03-01T03:45:52.942Z,10.33
2023-03-01T03:46:57.121Z,7.57
2023-03-01T03:48:02.925Z,8.37
2023-03-01T03:49:09.859Z,8.13
2023-03-01T03:50:17.307Z,9.77
2023-03-01T03:51:23.744Z,7.33
2023-03-01T03:52:27.622Z,11.33
2023-03-01T03:53:31.664Z,9.03
2023-03-01T03:54:35.269Z,8.77
2023-03-01T03:55:40.471Z,8.75
2023-03-01T03:56:45.110Z,9.20
2023-03-01T03:57:52.894Z,9.47
2023-03-01T03:58:57.210Z,9.53
2023-03-01T04:00:00.884Z,7.37
2023-03-01T04:01:06.099Z,9.17
2023-03-01T04:02:13.977Z,9.77
2023-03-01T04:03:20.015Z,8.10
2023-03-01T04:04:23.909Z,10.77
2023-03-01T04:05:28.836Z,9.33
2023-03-01T04:06:32.986Z,7.23
2023-03-01T04:07:39.085Z,10.70
2023-03-01T04:08:43.251Z,6.97
2023-03-01T04:09:47.233Z,8.60
2023-03-01T04:10:58.158Z,9.03
2023-03-01T04:12:01.948Z,8.37
2023-03-01T04:13:14.262Z,9.70
2023-03-01T04:14:18.754Z,7.43
2023-03-01T04:15:25.333Z,7.67
2023-03-01T04:16:30.030Z,8.13
2023-03-01T04:17:35.130Z,7.77
2023-03-01T04:18:39.609Z,10.17
2023-03-01T04:19:45.353Z,8.70
2023-03-01T04:20:50.397Z,8.83
2023-03-01T04:21:55.084Z,6.87
2023-03-01T04:23:21.439Z,8.45
2023-03-01T04:24:25.600Z,7.20
2023-03-01T04:25:30.234Z,9.20
2023-03-01T04:26:34.178Z,9.20
2023-03-01T04:27:38.239Z,8.27
2023-03-01T04:28:47.193Z,9.17
2023-03-01T04:29:51.080Z,7.70
2023-03-01T04:30:57.747Z,8.25
2023-03-01T04:32:01.677Z,7.97
2023-03-01T04:33:11.245Z,8.25
2023-03-01T04:34:15.272Z,7.68
2023-03-01T04:35:19.116Z,8.67
2023-03-01T04:36:28.316Z,9.77
2023-03-01T04:37:32.069Z,8.97
2023-03-01T04:38:38.310Z,8.27
2023-03-01T04:39:46.633Z,9.27
2023-03-01T04:40:50.697Z,8.50
2023-03-01T04:41:54.897Z,8.53
2023-03-01T04:42:59.008Z,9.93
2023-03-01T04:44:02.642Z,9.70
2023-03-01T04:45:16.020Z,8.87
2023-03-01T04:46:29.451Z,7.10
2023-03-01T04:47:33.804Z,8.90
2023-03-01T04:48:41.810Z,7.83
2023-03-01T04:49:45.784Z,8.80
2023-03-01T04:50:49.691Z,9.05
2023-03-01T04:51:53.700Z,8.32
2023-03-01T04:52:59.768Z,9.52
2023-03-01T04:54:04.314Z,8.77
2023-03-01T04:55:11.099Z,7.30
2023-03-01T04:56:16.547Z,9.02
2023-03-01T04:57:21.017Z,9.10
2023-03-01T04:58:28.150Z,8.07
2023-03-01T04:59:31.909Z,7.80
2023-03-01T05:00:35.742Z,8.97
2023-03-01T05:01:40.227Z,8.50
2023-03-01T05:02:44.720Z,8.20
2023-03-01T05:03:52.331Z,10.13
2023-03-01T05:04:58.645Z,8.73
2023-03-01T05:06:02.319Z,8.23
2023-03-01T05:07:09.745Z,8.53
2023-03-01T05:08:21.938Z,9.70
2023-03-01T05:09:25.795Z,7.73
2023-03-01T05:10:33.061Z,8.33
2023-03-01T05:11:37.028Z,10.20
2023-03-01T05:12:40.780Z,10.55
2023-03-01T05:13:44.996Z,9.37
2023-03-01T05:14:49.172Z,9.13
2023-03-01T05:16:01.874Z,9.93
2023-03-01T05:17:07.611Z,9.82
2023-03-01T05:18:12.798Z,8.60
2023-03-01T05:19:16.943Z,9.70
2023-03-01T05:20:24.117Z,9.63
2023-03-01T05:21:28.615Z,8.38
2023-03-01T05:22:32.518Z,9.25
2023-03-01T05:23:37.688Z,9.20
2023-03-01T05:24:42.156Z,8.98
2023-03-01T05:25:48.115Z,8.73
2023-03-01T05:26:52.956Z,9.67
2023-03-01T05:27:57.517Z,8.63
2023-03-01T05:29:02.425Z,8.97
2023-03-01T05:30:14.839Z,8.87
2023-03-01T05:31:18.521Z,12.40
2023-03-01T05:32:23.127Z,15.27
2023-03-01T05:33:28.267Z,16.50
2023-03-01T05:34:35.163Z,11.40
2023-03-01T05:35:38.889Z,12.50
2023-03-01T05:36:42.558Z,10.90
2023-03-01T05:37:49.083Z,8.77
2023-03-01T05:38:53.292Z,8.80
2023-03-01T05:39:57.275Z,10.77
2023-03-01T05:41:01.250Z,10.27
2023-03-01T05:42:08.565Z,10.37
2023-03-01T05:43:14.612Z,11.00
2023-03-01T05:44:18.529Z,8.07
2023-03-01T05:45:24.697Z,9.90
2023-03-01T05:46:30.807Z,7.53
2023-03-01T05:47:34.783Z,8.38
2023-03-01T05:48:39.930Z,8.80
2023-03-01T05:49:43.850Z,9.10
2023-03-01T05:50:48.800Z,9.63
2023-03-01T05:51:54.353Z,7.77
2023-03-01T05:53:15.288Z,7.53
2023-03-01T05:54:21.690Z,8.00
2023-03-01T05:55:27.117Z,6.63
2023-03-01T05:56:37.060Z,8.50
2023-03-01T05:57:40.764Z,8.67
2023-03-01T05:58:44.848Z,7.67
2023-03-01T05:59:49.122Z,7.47
2023-03-01T06:00:54.224Z,8.00
2023-03-01T06:01:59.068Z,8.60
2023-03-01T06:03:03.899Z,8.77
2023-03-01T06:04:12.004Z,9.40
2023-03-01T06:05:17.501Z,9.43
2023-03-01T06:06:21.332Z,7.67
2023-03-01T06:07:25.200Z,9.10
2023-03-01T06:08:28.851Z,8.20
2023-03-01T06:09:32.858Z,8.37
2023-03-01T06:10:36.735Z,9.40
2023-03-01T06:11:40.219Z,10.40
2023-03-01T06:12:45.021Z,9.33
2023-03-01T06:13:49.174Z,10.20
2023-03-01T06:14:53.428Z,8.93
2023-03-01T06:15:57.228Z,9.67
2023-03-01T06:17:01.153Z,8.90
2023-03-01T06:18:05.061Z,9.17
2023-03-01T06:19:13.221Z,8.67
2023-03-01T06:20:23.994Z,9.03
2023-03-01T06:21:27.865Z,11.33
2023-03-01T06:22:31.794Z,9.50
2023-03-01T06:23:36.102Z,9.30
2023-03-01T06:24:39.643Z,9.33
2023-03-01T06:25:43.485Z,9.57
2023-03-01T06:26:47.120Z,9.00
2023-03-01T06:27:51.350Z,8.98
2023-03-01T06:28:55.135Z,8.93
2023-03-01T06:30:01.640Z,11.23
2023-03-01T06:31:11.968Z,8.80
2023-03-01T06:32:16.084Z,8.80
2023-03-01T06:33:25.460Z,8.70
2023-03-01T06:34:32.252Z,10.10
2023-03-01T06:35:36.862Z,9.35
2023-03-01T06:36:42.237Z,9.27
2023-03-01T06:37:47.820Z,10.00
2023-03-01T06:38:55.227Z,11.52
2023-03-01T06:40:10.725Z,8.40
2023-03-01T06:41:27.809Z,9.23
2023-03-01T06:42:32.678Z,8.73
2023-03-01T06:43:56.183Z,7.87
2023-03-01T06:44:59.631Z,11.33
2023-03-01T06:46:08.511Z,11.75
2023-03-01T06:47:16.127Z,12.85
2023-03-01T06:48:21.433Z,9.90
2023-03-01T06:49:26.095Z,8.07
2023-03-01T06:50:30.029Z,8.85
2023-03-01T06:51:33.681Z,8.55
2023-03-01T06:52:38.925Z,10.02
2023-03-01T06:53:47.783Z,10.82
2023-03-01T06:54:53.611Z,10.02
2023-03-01T06:56:10.441Z,11.27
2023-03-01T06:57:21.926Z,8.90
2023-03-01T06:58:32.360Z,10.23
2023-03-01T06:59:36.093Z,11.07
2023-03-01T07:00:42.053Z,12.38
2023-03-01T07:01:45.855Z,9.52
2023-03-01T07:02:49.769Z,8.80
2023-03-01T07:03:56.963Z,10.77
2023-03-01T07:05:00.871Z,10.40
2023-03-01T07:06:04.778Z,9.45
2023-03-01T07:07:12.713Z,10.82
2023-03-01T07:08:16.777Z,8.98
2023-03-01T07:09:22.438Z,10.60
2023-03-01T07:10:26.027Z,9.23
2023-03-01T07:11:29.783Z,10.90
2023-03-01T07:12:33.883Z,10.55
2023-03-01T07:13:37.577Z,11.38
2023-03-01T07:14:41.353Z,11.48
2023-03-01T07:15:45.047Z,11.30
2023-03-01T07:16:49.002Z,10.30
2023-03-01T07:17:53.101Z,10.27
2023-03-01T07:19:00.877Z,13.25
2023-03-01T07:20:09.776Z,10.50
2023-03-01T07:21:15.843Z,9.57
2023-03-01T07:22:20.161Z,10.32
2023-03-01T07:23:24.268Z,10.00
2023-03-01T07:24:28.078Z,12.23
2023-03-01T07:25:32.033Z,10.15
2023-03-01T07:26:36.766Z,10.82
2023-03-01T07:27:41.636Z,11.13
2023-03-01T07:28:45.281Z,9.80
2023-03-01T07:29:49.175Z,12.27
2023-03-01T07:30:53.456Z,10.05
2023-03-01T07:31:57.416Z,11.02
2023-03-01T07:33:03.078Z,13.18
2023-03-01T07:34:13.036Z,11.80
2023-03-01T07:35:17.071Z,11.27
2023-03-01T07:36:21.089Z,12.05
2023-03-01T07:37:25.148Z,10.82
2023-03-01T07:38:30.441Z,11.48
2023-03-01T07:39:34.032Z,12.70
2023-03-01T07:40:37.960Z,11.68
2023-03-01T07:41:41.894Z,11.93
2023-03-01T07:42:45.890Z,11.88
2023-03-01T07:43:49.673Z,9.82
2023-03-01T07:44:53.449Z,14.43
2023-03-01T07:46:04.400Z,9.07
2023-03-01T07:47:12.471Z,11.30
2023-03-01T07:48:16.110Z,12.13
2023-03-01T07:49:20.044Z,11.23
2023-03-01T07:50:24.787Z,11.40
2023-03-01T07:51:28.496Z,12.23
2023-03-01T07:52:32.275Z,10.43
2023-03-01T07:53:36.655Z,10.70
2023-03-01T07:54:43.399Z,10.63
2023-03-01T07:55:47.156Z,10.55
2023-03-01T07:56:50.700Z,12.00
2023-03-01T07:57:55.281Z,11.85
2023-03-01T07:59:01.232Z,10.38
2023-03-01T08:00:07.871Z,9.18
2023-03-01T08:01:16.260Z,9.43
2023-03-01T08:02:19.917Z,10.20
2023-03-01T08:03:23.779Z,10.50
2023-03-01T08:04:27.942Z,10.57
2023-03-01T08:05:31.574Z,10.95
2023-03-01T08:06:37.293Z,12.77
2023-03-01T08:07:40.878Z,8.80
2023-03-01T08:08:45.572Z,9.95
2023-03-01T08:09:49.270Z,9.32
2023-03-01T08:10:53.570Z,8.52
2023-03-01T08:12:02.209Z,10.90
2023-03-01T08:13:12.442Z,10.05
2023-03-01T08:14:16.228Z,10.10
2023-03-01T08:15:20.136Z,8.63
2023-03-01T08:16:24.604Z,10.00
2023-03-01T08:17:28.650Z,10.27
2023-03-01T08:18:32.711Z,10.52
2023-03-01T08:19:36.864Z,9.05
2023-03-01T08:20:40.817Z,10.60
2023-03-01T08:21:44.650Z,8.50
2023-03-01T08:22:48.131Z,12.25
2023-03-01T08:23:52.620Z,10.98
2023-03-01T08:24:57.068Z,10.07
2023-03-01T08:26:18.317Z,10.43
2023-03-01T08:27:26.274Z,10.40
2023-03-01T08:28:29.933Z,9.10
2023-03-01T08:29:34.789Z,8.75
2023-03-01T08:30:39.152Z,8.77
2023-03-01T08:31:43.171Z,11.05
2023-03-01T08:32:47.295Z,8.85
2023-03-01T08:33:58.324Z,8.90
2023-03-01T08:35:02.225Z,9.95
2023-03-01T08:36:08.759Z,8.82
2023-03-01T08:37:12.199Z,8.98
2023-03-01T08:38:15.884Z,8.15
2023-03-01T08:39:22.225Z,8.63
2023-03-01T08:40:25.808Z,7.60
2023-03-01T08:41:30.053Z,7.38
2023-03-01T08:42:34.529Z,8.90
2023-03-01T08:43:38.191Z,7.65
2023-03-01T08:44:41.899Z,10.30
2023-03-01T08:45:45.736Z,9.68
2023-03-01T08:46:51.079Z,9.82
2023-03-01T08:47:54.916Z,10.63
2023-03-01T08:48:58.454Z,9.90
2023-03-01T08:50:02.460Z,7.03
2023-03-01T08:51:17.941Z,6.68
2023-03-01T08:52:22.132Z,7.38
2023-03-01T08:53:25.992Z,8.10
2023-03-01T08:54:29.887Z,10.02
2023-03-01T08:55:33.598Z,7.85
2023-03-01T08:56:37.297Z,8.63
2023-03-01T08:57:41.164Z,8.75
2023-03-01T08:58:47.452Z,8.50
2023-03-01T08:59:51.064Z,8.98
2023-03-01T09:00:54.631Z,8.15
2023-03-01T09:01:58.325Z,8.98
2023-03-01T09:03:02.804Z,7.43
2023-03-01T09:04:11.861Z,8.38
2023-03-01T09:05:15.534Z,8.52
2023-03-01T09:06:19.959Z,8.95
2023-03-01T09:07:30.033Z,8.48
2023-03-01T09:08:40.784Z,8.35
2023-03-01T09:09:44.501Z,8.65
2023-03-01T09:10:49.301Z,8.80
2023-03-01T09:11:53.400Z,9.63
2023-03-01T09:12:57.177Z,8.55
2023-03-01T09:14:01.236Z,9.50
2023-03-01T09:15:10.889Z,9.98
2023-03-01T09:16:18.814Z,8.38
2023-03-01T09:17:22.733Z,8.98
2023-03-01T09:18:26.466Z,10.27
2023-03-01T09:19:30.579Z,8.27
2023-03-01T09:20:34.482Z,8.35
2023-03-01T09:21:41.133Z,8.23
2023-03-01T09:22:45.126Z,8.45
2023-03-01T09:23:57.054Z,8.00
2023-03-01T09:25:02.464Z,9.48
2023-03-01T09:26:20.463Z,8.93
2023-03-01T09:27:26.680Z,9.27
2023-03-01T09:28:30.632Z,8.18
2023-03-01T09:29:34.673Z,8.57
2023-03-01T09:30:38.166Z,9.82
2023-03-01T09:31:42.639Z,9.00
2023-03-01T09:32:46.197Z,8.45
2023-03-01T09:33:53.458Z,8.98
2023-03-01T09:35:08.452Z,10.07
2023-03-01T09:36:22.266Z,8.43
2023-03-01T09:37:26.289Z,9.02
2023-03-01T09:38:30.608Z,8.80
2023-03-01T09:39:34.394Z,8.23
2023-03-01T09:40:43.728Z,8.48
2023-03-01T09:42:04.172Z,7.70
2023-03-01T09:43:33.790Z,8.07
2023-03-01T09:44:52.423Z,7.45
2023-03-01T09:46:05.786Z,8.00
2023-03-01T09:47:36.153Z,8.30
2023-03-01T09:49:06.351Z,7.95
2023-03-01T09:50:18.607Z,8.27
2023-03-01T09:51:35.569Z,7.55
2023-03-01T09:53:14.019Z,8.43
2023-03-01T09:54:18.012Z,7.22
2023-03-01T09:55:46.290Z,7.18
2023-03-01T09:57:07.466Z,8.57
2023-03-01T09:58:41.009Z,7.10
2023-03-01T10:00:14.889Z,7.68
2023-03-01T10:02:09.279Z,6.93
2023-03-01T10:03:38.413Z,6.95
2023-03-01T10:04:53.743Z,5.15
2023-03-01T10:06:32.248Z,6.78
2023-03-01T10:08:11.562Z,6.35
2023-03-01T10:09:19.249Z,7.15
2023-03-01T10:10:44.359Z,7.72
2023-03-01T10:11:55.471Z,6.97
2023-03-01T10:13:11.695Z,5.88
2023-03-01T10:14:36.751Z,6.88
2023-03-01T10:15:56.715Z,5.93
2023-03-01T10:17:43.764Z,6.88
2023-03-01T10:18:57.042Z,7.85
2023-03-01T10:20:22.263Z,6.35
2023-03-01T10:21:33.109Z,6.10
2023-03-01T10:22:38.600Z,7.15
2023-03-01T10:23:42.354Z,5.78
2023-03-01T10:24:47.722Z,6.25
2023-03-01T10:26:18.967Z,6.45
2023-03-01T10:27:45.773Z,6.18
2023-03-01T10:29:09.264Z,6.03
2023-03-01T10:30:36.212Z,7.53
2023-03-01T10:31:50.493Z,6.53
2023-03-01T10:32:55.364Z,8.60
2023-03-01T10:34:00.075Z,6.28
2023-03-01T10:35:43.270Z,6.65
2023-03-01T10:36:53.855Z,7.05
2023-03-01T10:38:21.467Z,6.63
2023-03-01T10:39:28.227Z,7.00
2023-03-01T10:40:35.077Z,7.18
2023-03-01T10:41:54.077Z,7.03
2023-03-01T10:43:05.586Z,6.18
2023-03-01T10:44:37.825Z,6.47
2023-03-01T10:45:42.065Z,6.03
2023-03-01T10:46:45.544Z,6.97
2023-03-01T10:48:28.628Z,5.90
2023-03-01T10:49:32.960Z,5.80
2023-03-01T10:50:40.312Z,5.65
2023-03-01T10:51:50.184Z,5.93
2023-03-01T10:53:06.145Z,5.97
2023-03-01T10:54:26.615Z,5.32
2023-03-01T10:55:41.406Z,5.38
2023-03-01T10:57:32.511Z,5.90
2023-03-01T10:58:40.360Z,5.07
2023-03-01T10:59:44.296Z,5.50
2023-03-01T11:01:10.104Z,5.40
2023-03-01T11:02:31.725Z,5.30
2023-03-01T11:03:40.302Z,5.63
2023-03-01T11:05:21.484Z,6.00
2023-03-01T11:06:27.379Z,5.00
2023-03-01T11:07:31.190Z,4.80
2023-03-01T11:08:46.327Z,5.30
2023-03-01T11:09:49.838Z,5.93
2023-03-01T11:11:23.549Z,5.53
2023-03-01T11:12:29.918Z,6.20
2023-03-01T11:13:33.543Z,5.65
2023-03-01T11:14:41.829Z,5.22
2023-03-01T11:16:02.394Z,4.03
2023-03-01T11:17:24.334Z,5.35
2023-03-01T11:18:45.937Z,4.68
2023-03-01T11:20:48.611Z,4.15
2023-03-01T11:22:13.089Z,4.95
2023-03-01T11:23:18.116Z,6.25
2023-03-01T11:24:33.753Z,4.60
2023-03-01T11:25:43.092Z,5.45
2023-03-01T11:26:55.288Z,5.40
2023-03-01T11:28:04.730Z,5.63
2023-03-01T11:29:29.692Z,5.63
2023-03-01T11:31:08.546Z,6.18
2023-03-01T11:32:16.836Z,4.80
2023-03-01T11:33:53.745Z,5.05
2023-03-01T11:35:27.855Z,4.57
2023-03-01T11:37:13.282Z,4.32
2023-03-01T11:38:28.587Z,4.53
2023-03-01T11:39:57.128Z,5.05
2023-03-01T11:41:20.940Z,5.47
2023-03-01T11:42:44.887Z,6.60
2023-03-01T11:44:07.346Z,5.75
2023-03-01T11:45:14.388Z,5.80
2023-03-01T11:46:33.339Z,5.00
2023-03-01T11:47:48.091Z,4.90
2023-03-01T11:49:20.510Z,5.45
2023-03-01T11:50:47.467Z,5.63
2023-03-01T11:52:34.438Z,7.15
2023-03-01T11:53:48.964Z,7.35
2023-03-01T11:55:30.684Z,7.10
2023-03-01T11:56:51.615Z,7.50
2023-03-01T11:58:15.469Z,6.90
2023-03-01T11:59:42.262Z,5.47
2023-03-01T12:01:05.512Z,6.32
2023-03-01T12:02:41.253Z,6.80
2023-03-01T12:04:10.314Z,7.63
2023-03-01T12:05:48.052Z,6.88
2023-03-01T12:07:21.522Z,7.03
2023-03-01T12:09:04.163Z,6.97
2023-03-01T12:10:35.880Z,7.45
2023-03-01T12:12:00.568Z,6.68
2023-03-01T12:13:38.664Z,8.63
2023-03-01T12:14:53.638Z,6.78
2023-03-01T12:16:38.742Z,7.72
2023-03-01T12:18:10.375Z,7.95
2023-03-01T12:19:36.646Z,7.30
2023-03-01T12:21:15.328Z,7.97
2023-03-01T12:22:32.046Z,7.43
2023-03-01T12:24:19.562Z,6.68
2023-03-01T12:25:40.302Z,9.23
2023-03-01T12:27:17.281Z,5.97
2023-03-01T12:28:44.516Z,7.18
2023-03-01T12:30:03.706Z,6.10
2023-03-01T12:32:08.354Z,6.72
2023-03-01T12:33:26.005Z,6.40
2023-03-01T12:35:13.735Z,7.15
2023-03-01T12:37:03.687Z,5.55
2023-03-01T12:38:58.883Z,5.40
2023-03-01T12:40:32.642Z,5.15
2023-03-01T12:41:46.808Z,5.07
2023-03-01T12:43:13.770Z,4.50
2023-03-01T12:45:06.737Z,5.63
2023-03-01T12:46:58.447Z,5.30
2023-03-01T12:48:14.960Z,5.35
2023-03-01T12:49:31.493Z,5.32
2023-03-01T12:50:52.641Z,5.28
2023-03-01T12:52:21.692Z,5.28
2023-03-01T12:53:34.421Z,4.95
2023-03-01T12:54:38.874Z,5.10
2023-03-01T12:55:44.806Z,4.70
2023-03-01T12:56:53.663Z,5.40
2023-03-01T12:58:43.625Z,5.30
2023-03-01T13:00:34.055Z,4.85
2023-03-01T13:02:26.000Z,4.32
2023-03-01T13:04:14.570Z,5.18
2023-03-01T13:05:43.482Z,5.18
2023-03-01T13:07:18.076Z,4.88
2023-03-01T13:08:32.109Z,4.38
2023-03-01T13:09:55.746Z,4.60
2023-03-01T13:11:06.737Z,3.92
2023-03-01T13:12:51.210Z,3.90
2023-03-01T13:14:24.074Z,4.85
2023-03-01T13:15:37.229Z,4.43
2023-03-01T13:16:50.252Z,4.60
2023-03-01T13:17:56.846Z,5.25
2023-03-01T13:19:24.326Z,4.63
2023-03-01T13:20:34.960Z,5.22
2023-03-01T13:21:38.661Z,4.53
2023-03-01T13:22:54.308Z,5.32
2023-03-01T13:24:34.221Z,5.43
2023-03-01T13:26:14.605Z,4.63
2023-03-01T13:27:18.648Z,5.22
2023-03-01T13:28:50.623Z,5.18
2023-03-01T13:30:06.823Z,4.80
2023-03-01T13:31:32.328Z,4.90
2023-03-01T13:32:44.701Z,5.85
2023-03-01T13:33:53.834Z,4.60
2023-03-01T13:35:20.798Z,6.57
2023-03-01T13:36:31.251Z,4.95
2023-03-01T13:37:44.393Z,5.88
2023-03-01T13:39:01.086Z,5.18
2023-03-01T13:40:21.964Z,4.65
2023-03-01T13:41:40.621Z,4.75
2023-03-01T13:42:56.386Z,4.72
2023-03-01T13:44:13.048Z,5.70
2023-03-01T13:45:34.436Z,6.43
2023-03-01T13:46:38.255Z,5.10
2023-03-01T13:47:45.783Z,5.25
2023-03-01T13:48:56.316Z,5.57
2023-03-01T13:50:06.801Z,5.43
2023-03-01T13:51:13.581Z,4.70
2023-03-01T13:52:31.880Z,5.45
2023-03-01T13:53:43.667Z,5.43
2023-03-01T13:54:48.189Z,6.90
2023-03-01T13:56:16.458Z,6.75
2023-03-01T13:57:30.558Z,5.03
2023-03-01T13:58:50.899Z,5.43
2023-03-01T13:59:55.434Z,5.38
2023-03-01T14:01:06.382Z,7.10
2023-03-01T14:02:14.636Z,5.05
2023-03-01T14:03:21.601Z,4.32
2023-03-01T14:04:33.875Z,5.40
2023-03-01T14:05:39.308Z,6.40
2023-03-01T14:06:43.010Z,4.78
2023-03-01T14:07:53.233Z,4.95
2023-03-01T14:09:28.307Z,5.18
2023-03-01T14:11:04.549Z,4.40
2023-03-01T14:12:29.237Z,4.47
2023-03-01T14:14:11.210Z,4.85
2023-03-01T14:15:30.249Z,5.25
2023-03-01T14:16:55.379Z,4.70
2023-03-01T14:18:31.784Z,4.70
2023-03-01T14:19:36.001Z,4.85
2023-03-01T14:20:52.347Z,5.38
2023-03-01T14:22:18.249Z,4.75
2023-03-01T14:23:25.360Z,5.05
2023-03-01T14:24:29.386Z,4.63
2023-03-01T14:25:36.972Z,4.25
2023-03-01T14:26:42.099Z,5.10
2023-03-01T14:27:52.014Z,3.50
2023-03-01T14:28:56.969Z,5.40
2023-03-01T14:30:13.674Z,3.38
2023-03-01T14:31:52.081Z,4.88
2023-03-01T14:33:09.017Z,4.43
2023-03-01T14:34:25.482Z,5.10
2023-03-01T14:35:35.935Z,3.85
2023-03-01T14:36:40.495Z,3.45
2023-03-01T14:37:44.311Z,4.40
2023-03-01T14:38:49.411Z,4.78
2023-03-01T14:39:54.760Z,4.07
2023-03-01T14:41:16.189Z,4.85
2023-03-01T14:42:23.824Z,3.78
2023-03-01T14:43:28.056Z,5.72
2023-03-01T14:44:35.153Z,5.25
2023-03-01T14:45:39.137Z,4.15
2023-03-01T14:46:46.174Z,3.80
2023-03-01T14:47:49.869Z,3.58
2023-03-01T14:49:02.200Z,3.63
2023-03-01T14:50:28.130Z,3.70
2023-03-01T14:51:36.402Z,4.10
2023-03-01T14:52:46.211Z,3.22
2023-03-01T14:53:51.845Z,4.43
2023-03-01T14:54:56.726Z,3.95
2023-03-01T14:56:03.842Z,4.75
2023-03-01T14:57:15.815Z,5.40
2023-03-01T14:58:25.860Z,4.45
2023-03-01T14:59:30.531Z,4.55
2023-03-01T15:00:36.090Z,4.28
2023-03-01T15:01:43.461Z,4.00
2023-03-01T15:02:52.500Z,3.78
2023-03-01T15:03:59.494Z,4.13
2023-03-01T15:05:08.078Z,3.30
2023-03-01T15:06:18.559Z,3.53
2023-03-01T15:07:24.466Z,4.93
2023-03-01T15:08:40.390Z,4.82
2023-03-01T15:09:44.945Z,4.53
2023-03-01T15:11:15.134Z,4.28
2023-03-01T15:12:39.420Z,3.90
2023-03-01T15:13:43.587Z,3.08
2023-03-01T15:15:02.693Z,4.15
2023-03-01T15:16:18.192Z,4.22
2023-03-01T15:17:39.877Z,4.40
2023-03-01T15:18:55.540Z,3.25
2023-03-01T15:20:00.231Z,2.85
2023-03-01T15:21:24.723Z,3.05
2023-03-01T15:22:29.194Z,3.58
2023-03-01T15:23:33.156Z,4.28
2023-03-01T15:24:37.703Z,3.25
2023-03-01T15:25:46.646Z,4.65
2023-03-01T15:26:58.544Z,5.05
2023-03-01T15:28:04.018Z,5.70
2023-03-01T15:29:20.836Z,3.53
2023-03-01T15:30:38.991Z,5.45
2023-03-01T15:31:42.869Z,3.65
2023-03-01T15:32:46.928Z,3.65
2023-03-01T15:33:51.443Z,4.00
2023-03-01T15:34:56.481Z,3.95
2023-03-01T15:36:03.797Z,2.80
2023-03-01T15:37:54.049Z,3.35
2023-03-01T15:39:01.179Z,2.90
2023-03-01T15:40:25.794Z,4.07